sensor_id;sensor_type;location;lat;lon;timestamp;pressure;altitude;pressure_sealevel;temperature;humidity
67545;BME280;54380;47.770;11.150;2023-03-14T00:01:33;93390.72;;;11.82;56.61
67545;BME280;54380;47.770;11.150;2023-03-14T00:04:03;93401.69;;;11.75;56.96
67545;BME280;54380;47.770;11.150;2023-03-14T00:06:31;93404.59;;;11.74;57.01
67545;BME280;54380;47.770;11.150;2023-03-14T00:08:59;93401.69;;;11.75;57.03
67545;BME280;54380;47.770;11.150;2023-03-14T00:11:26;93409.03;;;11.78;56.86
67545;BME280;54380;47.770;11.150;2023-03-14T00:13:53;93411.84;;;11.82;57.11
67545;BME280;54380;47.770;11.150;2023-03-14T00:16:21;93414.72;;;11.85;57.00
67545;BME280;54380;47.770;11.150;2023-03-14T00:18:48;93409.38;;;11.91;56.86
67545;BME280;54380;47.770;11.150;2023-03-14T00:21:15;93410.03;;;11.96;56.53
67545;BME280;54380;47.770;11.150;2023-03-14T00:23:42;93419.25;;;11.99;57.10
67545;BME280;54380;47.770;11.150;2023-03-14T00:26:11;93412.38;;;11.98;57.16
67545;BME280;54380;47.770;11.150;2023-03-14T00:28:40;93409.84;;;11.93;57.25
67545;BME280;54380;47.770;11.150;2023-03-14T00:31:10;93406.50;;;11.87;57.38
67545;BME280;54380;47.770;11.150;2023-03-14T00:33:40;93410.78;;;11.83;57.35
67545;BME280;54380;47.770;11.150;2023-03-14T00:36:09;93415.59;;;11.81;57.63
67545;BME280;54380;47.770;11.150;2023-03-14T00:38:38;93411.38;;;11.80;57.60
67545;BME280;54380;47.770;11.150;2023-03-14T00:41:07;93416.09;;;11.83;57.67
67545;BME280;54380;47.770;11.150;2023-03-14T00:43:34;93417.06;;;11.87;57.30
67545;BME280;54380;47.770;11.150;2023-03-14T00:46:01;93425.81;;;11.88;57.13
67545;BME280;54380;47.770;11.150;2023-03-14T00:48:28;93434.22;;;11.90;57.28
67545;BME280;54380;47.770;11.150;2023-03-14T00:50:56;93435.50;;;11.92;57.13
67545;BME280;54380;47.770;11.150;2023-03-14T00:53:23;93447.66;;;11.93;57.03
67545;BME280;54380;47.770;11.150;2023-03-14T00:55:50;93442.84;;;11.95;57.23
67545;BME280;54380;47.770;11.150;2023-03-14T00:58:17;93444.09;;;11.98;57.42
67545;BME280;54380;47.770;11.150;2023-03-14T01:00:45;93456.06;;;11.95;57.02
67545;BME280;54380;47.770;11.150;2023-03-14T01:03:13;93454.50;;;11.94;57.27
67545;BME280;54380;47.770;11.150;2023-03-14T01:05:41;93454.00;;;11.92;57.13
67545;BME280;54380;47.770;11.150;2023-03-14T01:08:09;93459.28;;;11.92;57.43
67545;BME280;54380;47.770;11.150;2023-03-14T01:10:38;93469.59;;;11.94;57.52
67545;BME280;54380;47.770;11.150;2023-03-14T01:13:05;93471.13;;;11.95;57.88
67545;BME280;54380;47.770;11.150;2023-03-14T01:15:32;93465.06;;;11.94;57.59
67545;BME280;54380;47.770;11.150;2023-03-14T01:17:59;93469.88;;;11.92;58.08
67545;BME280;54380;47.770;11.150;2023-03-14T01:20:26;93473.41;;;11.88;58.08
67545;BME280;54380;47.770;11.150;2023-03-14T01:22:53;93476.09;;;11.82;58.58
67545;BME280;54380;47.770;11.150;2023-03-14T01:25:21;93482.25;;;11.78;58.58
67545;BME280;54380;47.770;11.150;2023-03-14T01:27:48;93490.28;;;11.73;58.85
67545;BME280;54380;47.770;11.150;2023-03-14T01:30:18;93488.72;;;11.72;58.53
67545;BME280;54380;47.770;11.150;2023-03-14T01:32:44;93482.94;;;11.70;58.84
67545;BME280;54380;47.770;11.150;2023-03-14T01:35:11;93476.56;;;11.71;59.12
67545;BME280;54380;47.770;11.150;2023-03-14T01:37:38;93480.50;;;11.73;59.60
67545;BME280;54380;47.770;11.150;2023-03-14T01:40:10;93475.50;;;11.72;60.10
67545;BME280;54380;47.770;11.150;2023-03-14T01:42:44;93477.16;;;11.68;60.86
67545;BME280;54380;47.770;11.150;2023-03-14T01:48:18;93467.53;;;11.58;61.36
67545;BME280;54380;47.770;11.150;2023-03-14T01:50:45;93463.13;;;11.53;61.43
67545;BME280;54380;47.770;11.150;2023-03-14T01:53:13;93466.63;;;11.49;60.66
67545;BME280;54380;47.770;11.150;2023-03-14T01:55:40;93476.72;;;11.47;60.94
67545;BME280;54380;47.770;11.150;2023-03-14T01:58:09;93480.13;;;11.47;60.82
67545;BME280;54380;47.770;11.150;2023-03-14T02:00:36;93489.91;;;11.47;61.02
67545;BME280;54380;47.770;11.150;2023-03-14T02:03:08;93485.50;;;11.42;60.83
67545;BME280;54380;47.770;11.150;2023-03-14T02:05:39;93489.22;;;11.41;61.07
67545;BME280;54380;47.770;11.150;2023-03-14T02:08:16;93482.94;;;11.37;61.07
67545;BME280;54380;47.770;11.150;2023-03-14T02:10:53;93482.94;;;11.37;60.96
67545;BME280;54380;47.770;11.150;2023-03-14T02:13:37;93479.00;;;11.34;61.56
67545;BME280;54380;47.770;11.150;2023-03-14T02:16:37;93479.59;;;11.31;61.51
67545;BME280;54380;47.770;11.150;2023-03-14T02:19:42;93494.75;;;11.26;61.25
67545;BME280;54380;47.770;11.150;2023-03-14T02:22:22;93501.19;;;11.19;61.61
67545;BME280;54380;47.770;11.150;2023-03-14T02:25:00;93497.59;;;11.10;61.25
67545;BME280;54380;47.770;11.150;2023-03-14T02:27:31;93510.16;;;10.99;61.61
67545;BME280;54380;47.770;11.150;2023-03-14T02:30:01;93498.47;;;10.87;61.75
67545;BME280;54380;47.770;11.150;2023-03-14T02:32:30;93499.69;;;10.75;62.20
67545;BME280;54380;47.770;11.150;2023-03-14T02:35:01;93480.56;;;10.65;62.09
67545;BME280;54380;47.770;11.150;2023-03-14T02:37:35;93466.22;;;10.52;61.87
67545;BME280;54380;47.770;11.150;2023-03-14T02:40:04;93478.69;;;10.46;62.42
67545;BME280;54380;47.770;11.150;2023-03-14T02:42:35;93467.94;;;10.43;62.31
67545;BME280;54380;47.770;11.150;2023-03-14T02:45:34;93463.25;;;10.35;61.80
67545;BME280;54380;47.770;11.150;2023-03-14T02:48:06;93448.84;;;10.27;61.76
67545;BME280;54380;47.770;11.150;2023-03-14T02:50:36;93428.06;;;10.20;61.23
67545;BME280;54380;47.770;11.150;2023-03-14T02:53:04;93437.91;;;10.15;61.58
67545;BME280;54380;47.770;11.150;2023-03-14T02:55:31;93437.19;;;10.09;61.68
67545;BME280;54380;47.770;11.150;2023-03-14T02:58:05;93420.41;;;10.00;61.20
67545;BME280;54380;47.770;11.150;2023-03-14T03:00:32;93412.34;;;9.91;61.56
67545;BME280;54380;47.770;11.150;2023-03-14T03:03:01;93407.41;;;9.84;61.74
67545;BME280;54380;47.770;11.150;2023-03-14T03:05:28;93404.81;;;9.79;61.43
67545;BME280;54380;47.770;11.150;2023-03-14T03:07:55;93401.97;;;9.76;61.32
67545;BME280;54380;47.770;11.150;2023-03-14T03:10:24;93400.97;;;9.72;61.24
67545;BME280;54380;47.770;11.150;2023-03-14T03:12:51;93398.88;;;9.68;61.14
67545;BME280;54380;47.770;11.150;2023-03-14T03:15:23;93392.09;;;9.62;61.58
67545;BME280;54380;47.770;11.150;2023-03-14T03:17:50;93389.25;;;9.59;61.56
67545;BME280;54380;47.770;11.150;2023-03-14T03:20:19;93372.44;;;9.55;62.19
67545;BME280;54380;47.770;11.150;2023-03-14T03:22:46;93365.91;;;9.47;62.26
67545;BME280;54380;47.770;11.150;2023-03-14T03:25:13;93362.56;;;9.41;62.13
67545;BME280;54380;47.770;11.150;2023-03-14T03:27:40;93371.59;;;9.35;62.43
67545;BME280;54380;47.770;11.150;2023-03-14T03:30:08;93360.53;;;9.33;62.81
67545;BME280;54380;47.770;11.150;2023-03-14T03:32:37;93364.78;;;9.29;63.00
67545;BME280;54380;47.770;11.150;2023-03-14T03:35:07;93362.72;;;9.26;63.66
67545;BME280;54380;47.770;11.150;2023-03-14T03:37:37;93373.25;;;9.26;63.00
67545;BME280;54380;47.770;11.150;2023-03-14T03:40:07;93360.06;;;9.26;62.93
67545;BME280;54380;47.770;11.150;2023-03-14T03:42:35;93357.69;;;9.30;63.24
67545;BME280;54380;47.770;11.150;2023-03-14T03:45:07;93367.66;;;9.33;63.26
67545;BME280;54380;47.770;11.150;2023-03-14T03:47:41;93371.06;;;9.33;63.20
67545;BME280;54380;47.770;11.150;2023-03-14T03:50:08;93364.25;;;9.32;63.87
67545;BME280;54380;47.770;11.150;2023-03-14T03:52:35;93367.41;;;9.29;63.22
67545;BME280;54380;47.770;11.150;2023-03-14T03:55:02;93372.19;;;9.27;63.34
67545;BME280;54380;47.770;11.150;2023-03-14T03:57:29;93363.78;;;9.25;63.28
67545;BME280;54380;47.770;11.150;2023-03-14T03:59:56;93364.53;;;9.31;63.56
67545;BME280;54380;47.770;11.150;2023-03-14T04:02:23;93362.66;;;9.31;63.79
67545;BME280;54380;47.770;11.150;2023-03-14T04:04:52;93355.53;;;9.32;63.60
67545;BME280;54380;47.770;11.150;2023-03-14T04:07:20;93356.34;;;9.32;63.23
67545;BME280;54380;47.770;11.150;2023-03-14T04:09:48;93348.44;;;9.32;63.33
67545;BME280;54380;47.770;11.150;2023-03-14T04:12:24;93344.53;;;9.30;62.93
67545;BME280;54380;47.770;11.150;2023-03-14T04:15:03;93329.47;;;9.35;63.36
67545;BME280;54380;47.770;11.150;2023-03-14T04:17:31;93318.34;;;9.38;63.20
67545;BME280;54380;47.770;11.150;2023-03-14T04:19:59;93317.00;;;9.41;62.54
67545;BME280;54380;47.770;11.150;2023-03-14T04:22:33;93313.81;;;9.44;62.76
67545;BME280;54380;47.770;11.150;2023-03-14T04:25:00;93316.66;;;9.48;62.50
67545;BME280;54380;47.770;11.150;2023-03-14T04:27:32;93314.28;;;9.51;62.88
67545;BME280;54380;47.770;11.150;2023-03-14T04:30:00;93319.75;;;9.55;62.38
67545;BME280;54380;47.770;11.150;2023-03-14T04:32:44;93310.50;;;9.57;62.60
67545;BME280;54380;47.770;11.150;2023-03-14T04:35:13;93299.97;;;9.57;62.33
67545;BME280;54380;47.770;11.150;2023-03-14T04:37:39;93293.91;;;9.57;62.52
67545;BME280;54380;47.770;11.150;2023-03-14T04:40:10;93284.66;;;9.59;62.20
67545;BME280;54380;47.770;11.150;2023-03-14T04:42:37;93279.59;;;9.63;61.99
67545;BME280;54380;47.770;11.150;2023-03-14T04:45:06;93279.03;;;9.66;62.49
67545;BME280;54380;47.770;11.150;2023-03-14T04:47:34;93275.34;;;9.67;62.39
67545;BME280;54380;47.770;11.150;2023-03-14T04:50:01;93274.06;;;9.64;62.66
67545;BME280;54380;47.770;11.150;2023-03-14T04:52:30;93272.94;;;9.71;62.20
67545;BME280;54380;47.770;11.150;2023-03-14T04:54:58;93268.94;;;9.73;61.67
67545;BME280;54380;47.770;11.150;2023-03-14T04:57:26;93273.94;;;9.75;62.12
67545;BME280;54380;47.770;11.150;2023-03-14T04:59:53;93271.06;;;9.71;62.38
67545;BME280;54380;47.770;11.150;2023-03-14T05:02:40;93250.28;;;9.70;62.05
67545;BME280;54380;47.770;11.150;2023-03-14T05:05:16;93241.53;;;9.74;61.96
67545;BME280;54380;47.770;11.150;2023-03-14T05:08:03;93250.00;;;9.71;62.10
67545;BME280;54380;47.770;11.150;2023-03-14T05:10:51;93241.81;;;9.73;61.97
67545;BME280;54380;47.770;11.150;2023-03-14T05:13:37;93242.09;;;9.71;61.82
67545;BME280;54380;47.770;11.150;2023-03-14T05:16:21;93239.25;;;9.67;62.12
67545;BME280;54380;47.770;11.150;2023-03-14T05:19:00;93226.34;;;9.66;62.14
67545;BME280;54380;47.770;11.150;2023-03-14T05:21:56;93230.84;;;9.65;62.11
67545;BME280;54380;47.770;11.150;2023-03-14T05:25:06;93226.91;;;9.63;62.23
67545;BME280;54380;47.770;11.150;2023-03-14T05:27:53;93209.41;;;9.53;62.98
67545;BME280;54380;47.770;11.150;2023-03-14T05:30:35;93216.94;;;9.41;63.63
67545;BME280;54380;47.770;11.150;2023-03-14T05:33:22;93205.03;;;9.25;64.21
67545;BME280;54380;47.770;11.150;2023-03-14T05:36:10;93207.75;;;9.19;64.18
67545;BME280;54380;47.770;11.150;2023-03-14T05:38:59;93196.63;;;9.22;63.28
67545;BME280;54380;47.770;11.150;2023-03-14T05:41:48;93186.03;;;9.28;63.06
67545;BME280;54380;47.770;11.150;2023-03-14T05:44:17;93194.16;;;9.31;63.95
67545;BME280;54380;47.770;11.150;2023-03-14T05:47:03;93197.22;;;9.38;63.68
67545;BME280;54380;47.770;11.150;2023-03-14T05:50:02;93182.91;;;9.44;62.99
67545;BME280;54380;47.770;11.150;2023-03-14T05:52:52;93184.97;;;9.48;63.10
67545;BME280;54380;47.770;11.150;2023-03-14T05:55:39;93191.06;;;9.48;63.06
67545;BME280;54380;47.770;11.150;2023-03-14T05:58:32;93192.88;;;9.48;63.02
67545;BME280;54380;47.770;11.150;2023-03-14T06:01:17;93185.28;;;9.46;63.28
67545;BME280;54380;47.770;11.150;2023-03-14T06:04:04;93182.84;;;9.50;63.08
67545;BME280;54380;47.770;11.150;2023-03-14T06:06:31;93176.53;;;9.51;62.70
67545;BME280;54380;47.770;11.150;2023-03-14T06:08:59;93171.47;;;9.54;62.58
67545;BME280;54380;47.770;11.150;2023-03-14T06:11:28;93159.84;;;9.55;63.17
67545;BME280;54380;47.770;11.150;2023-03-14T06:13:56;93149.91;;;9.52;62.58
67545;BME280;54380;47.770;11.150;2023-03-14T06:16:23;93147.56;;;9.51;62.79
67545;BME280;54380;47.770;11.150;2023-03-14T06:18:52;93132.53;;;9.51;62.83
67545;BME280;54380;47.770;11.150;2023-03-14T06:21:20;93118.59;;;9.51;62.53
67545;BME280;54380;47.770;11.150;2023-03-14T06:23:48;93119.56;;;9.55;63.03
67545;BME280;54380;47.770;11.150;2023-03-14T06:26:18;93130.59;;;9.57;63.34
67545;BME280;54380;47.770;11.150;2023-03-14T06:28:45;93127.47;;;9.55;63.40
67545;BME280;54380;47.770;11.150;2023-03-14T06:31:14;93148.53;;;9.55;63.37
67545;BME280;54380;47.770;11.150;2023-03-14T06:33:50;93145.19;;;9.49;63.56
67545;BME280;54380;47.770;11.150;2023-03-14T06:36:17;93157.28;;;9.50;63.16
67545;BME280;54380;47.770;11.150;2023-03-14T06:38:46;93165.94;;;9.56;63.27
67545;BME280;54380;47.770;11.150;2023-03-14T06:41:13;93176.16;;;9.57;63.48
67545;BME280;54380;47.770;11.150;2023-03-14T06:43:42;93176.22;;;9.52;64.13
67545;BME280;54380;47.770;11.150;2023-03-14T06:46:10;93174.25;;;9.44;63.76
67545;BME280;54380;47.770;11.150;2023-03-14T06:48:41;93178.50;;;9.40;64.62
67545;BME280;54380;47.770;11.150;2023-03-14T06:51:07;93163.84;;;9.34;64.50
67545;BME280;54380;47.770;11.150;2023-03-14T06:53:35;93162.06;;;9.29;64.67
67545;BME280;54380;47.770;11.150;2023-03-14T06:56:03;93166.84;;;9.27;64.61
67545;BME280;54380;47.770;11.150;2023-03-14T06:58:32;93167.09;;;9.26;64.72
67545;BME280;54380;47.770;11.150;2023-03-14T07:01:00;93169.47;;;9.27;65.19
67545;BME280;54380;47.770;11.150;2023-03-14T07:03:32;93161.78;;;9.31;64.87
67545;BME280;54380;47.770;11.150;2023-03-14T07:06:01;93163.56;;;9.35;65.39
67545;BME280;54380;47.770;11.150;2023-03-14T07:08:28;93166.97;;;9.36;64.79
67545;BME280;54380;47.770;11.150;2023-03-14T07:10:56;93170.38;;;9.36;64.98
67545;BME280;54380;47.770;11.150;2023-03-14T07:13:24;93174.31;;;9.39;64.55
67545;BME280;54380;47.770;11.150;2023-03-14T07:16:05;93172.38;;;9.44;64.55
67545;BME280;54380;47.770;11.150;2023-03-14T07:18:32;93175.53;;;9.47;64.26
67545;BME280;54380;47.770;11.150;2023-03-14T07:21:04;93169.69;;;9.50;64.29
67545;BME280;54380;47.770;11.150;2023-03-14T07:23:31;93169.34;;;9.56;63.90
67545;BME280;54380;47.770;11.150;2023-03-14T07:25:58;93166.06;;;9.64;64.42
67545;BME280;54380;47.770;11.150;2023-03-14T07:28:26;93155.16;;;9.71;63.86
67545;BME280;54380;47.770;11.150;2023-03-14T07:31:07;93161.41;;;9.75;63.67
67545;BME280;54380;47.770;11.150;2023-03-14T07:33:36;93165.34;;;9.78;63.04
67545;BME280;54380;47.770;11.150;2023-03-14T07:36:06;93159.50;;;9.81;63.98
67545;BME280;54380;47.770;11.150;2023-03-14T07:38:34;93150.44;;;9.87;63.47
67545;BME280;54380;47.770;11.150;2023-03-14T07:41:09;93160.88;;;9.92;63.64
67545;BME280;54380;47.770;11.150;2023-03-14T07:43:44;93166.66;;;9.94;63.75
67545;BME280;54380;47.770;11.150;2023-03-14T07:46:11;93165.31;;;9.97;64.37
67545;BME280;54380;47.770;11.150;2023-03-14T07:48:38;93158.94;;;9.98;63.67
67545;BME280;54380;47.770;11.150;2023-03-14T07:51:07;93159.75;;;9.98;64.08
67545;BME280;54380;47.770;11.150;2023-03-14T07:53:34;93157.91;;;9.99;63.75
67545;BME280;54380;47.770;11.150;2023-03-14T07:56:00;93154.50;;;9.98;64.02
67545;BME280;54380;47.770;11.150;2023-03-14T07:58:27;93156.63;;;9.96;64.05
67545;BME280;54380;47.770;11.150;2023-03-14T08:00:54;93156.31;;;9.98;63.79
67545;BME280;54380;47.770;11.150;2023-03-14T08:03:21;93155.53;;;9.97;64.50
67545;BME280;54380;47.770;11.150;2023-03-14T08:05:48;93154.75;;;9.97;64.08
67545;BME280;54380;47.770;11.150;2023-03-14T08:08:17;93154.50;;;9.98;64.35
67545;BME280;54380;47.770;11.150;2023-03-14T08:10:45;93156.63;;;9.96;63.98
67545;BME280;54380;47.770;11.150;2023-03-14T08:13:13;93156.31;;;9.98;64.37
67545;BME280;54380;47.770;11.150;2023-03-14T08:15:40;93159.44;;;10.00;63.90
67545;BME280;54380;47.770;11.150;2023-03-14T08:18:07;93159.44;;;10.00;63.66
67545;BME280;54380;47.770;11.150;2023-03-14T08:20:35;93165.03;;;9.98;64.30
67545;BME280;54380;47.770;11.150;2023-03-14T08:23:03;93171.84;;;9.99;64.51
67545;BME280;54380;47.770;11.150;2023-03-14T08:25:31;93166.59;;;9.99;64.10
67545;BME280;54380;47.770;11.150;2023-03-14T08:27:58;93161.41;;;9.94;64.43
67545;BME280;54380;47.770;11.150;2023-03-14T08:30:25;93168.03;;;9.92;63.89
67545;BME280;54380;47.770;11.150;2023-03-14T08:32:56;93171.22;;;9.88;64.57
67545;BME280;54380;47.770;11.150;2023-03-14T08:35:23;93169.69;;;9.87;64.30
67545;BME280;54380;47.770;11.150;2023-03-14T08:37:50;93173.09;;;9.88;64.49
67545;BME280;54380;47.770;11.150;2023-03-14T08:40:18;93166.25;;;9.87;64.07
67545;BME280;54380;47.770;11.150;2023-03-14T08:42:46;93181.78;;;9.88;64.76
67545;BME280;54380;47.770;11.150;2023-03-14T08:45:15;93184.13;;;9.90;64.09
67545;BME280;54380;47.770;11.150;2023-03-14T08:47:43;93184.59;;;9.92;64.51
67545;BME280;54380;47.770;11.150;2023-03-14T08:50:11;93184.34;;;9.94;63.99
67545;BME280;54380;47.770;11.150;2023-03-14T08:52:41;93177.97;;;9.95;64.31
67545;BME280;54380;47.770;11.150;2023-03-14T08:55:09;93170.06;;;9.95;64.51
67545;BME280;54380;47.770;11.150;2023-03-14T08:57:36;93164.03;;;9.94;64.56
67545;BME280;54380;47.770;11.150;2023-03-14T09:00:05;93162.47;;;9.93;64.36
67545;BME280;54380;47.770;11.150;2023-03-14T09:02:38;93164.09;;;9.89;64.66
67545;BME280;54380;47.770;11.150;2023-03-14T09:05:06;93161.47;;;9.89;64.48
67545;BME280;54380;47.770;11.150;2023-03-14T09:07:35;93156.78;;;9.86;64.65
67545;BME280;54380;47.770;11.150;2023-03-14T09:10:02;93158.63;;;9.85;64.23
67545;BME280;54380;47.770;11.150;2023-03-14T09:12:31;93165.19;;;9.88;64.28
67545;BME280;54380;47.770;11.150;2023-03-14T09:14:57;93172.50;;;9.91;63.89
67545;BME280;54380;47.770;11.150;2023-03-14T09:17:25;93161.59;;;9.98;64.04
67545;BME280;54380;47.770;11.150;2023-03-14T09:19:52;93163.09;;;10.04;64.20
67545;BME280;54380;47.770;11.150;2023-03-14T09:22:19;93168.06;;;10.05;64.12
67545;BME280;54380;47.770;11.150;2023-03-14T09:24:47;93166.22;;;10.06;64.21
67545;BME280;54380;47.770;11.150;2023-03-14T09:27:14;93162.78;;;10.05;63.54
67545;BME280;54380;47.770;11.150;2023-03-14T09:29:40;93165.66;;;10.09;63.55
67545;BME280;54380;47.770;11.150;2023-03-14T09:32:07;93171.13;;;10.13;63.36
67545;BME280;54380;47.770;11.150;2023-03-14T09:34:36;93173.16;;;10.16;62.68
67545;BME280;54380;47.770;11.150;2023-03-14T09:37:02;93167.91;;;10.16;62.82
67545;BME280;54380;47.770;11.150;2023-03-14T09:39:29;93172.31;;;10.20;62.33
67545;BME280;54380;47.770;11.150;2023-03-14T09:41:57;93174.88;;;10.25;61.63
67545;BME280;54380;47.770;11.150;2023-03-14T09:44:29;93173.25;;;10.29;61.45
67545;BME280;54380;47.770;11.150;2023-03-14T09:46:58;93168.38;;;10.37;61.68
67545;BME280;54380;47.770;11.150;2023-03-14T09:49:28;93168.00;;;10.43;61.86
67545;BME280;54380;47.770;11.150;2023-03-14T09:52:00;93154.41;;;10.50;61.60
67545;BME280;54380;47.770;11.150;2023-03-14T09:54:35;93167.75;;;10.59;62.26
67545;BME280;54380;47.770;11.150;2023-03-14T09:57:05;93167.34;;;10.65;62.07
67545;BME280;54380;47.770;11.150;2023-03-14T09:59:33;93170.06;;;10.74;62.06
67545;BME280;54380;47.770;11.150;2023-03-14T10:02:12;93171.16;;;10.87;61.85
67545;BME280;54380;47.770;11.150;2023-03-14T10:04:41;93174.88;;;10.99;61.70
67545;BME280;54380;47.770;11.150;2023-03-14T10:07:14;93173.22;;;11.17;60.89
67545;BME280;54380;47.770;11.150;2023-03-14T10:09:43;93168.22;;;11.30;61.52
67545;BME280;54380;47.770;11.150;2023-03-14T10:12:11;93167.31;;;11.48;60.83
67545;BME280;54380;47.770;11.150;2023-03-14T10:14:47;93172.69;;;11.79;61.35
67545;BME280;54380;47.770;11.150;2023-03-14T10:17:14;93168.41;;;12.28;60.69
67545;BME280;54380;47.770;11.150;2023-03-14T10:19:59;93170.09;;;12.87;59.43
67545;BME280;54380;47.770;11.150;2023-03-14T10:22:30;93164.00;;;13.26;58.37
67545;BME280;54380;47.770;11.150;2023-03-14T10:25:00;93165.94;;;13.52;57.42
67545;BME280;54380;47.770;11.150;2023-03-14T10:27:29;93160.63;;;13.60;56.22
67545;BME280;54380;47.770;11.150;2023-03-14T10:29:59;93158.47;;;13.63;55.53
67545;BME280;54380;47.770;11.150;2023-03-14T10:32:33;93152.53;;;13.74;56.09
67545;BME280;54380;47.770;11.150;2023-03-14T10:35:22;93162.97;;;14.05;55.77
67545;BME280;54380;47.770;11.150;2023-03-14T10:37:56;93165.41;;;14.45;54.33
67545;BME280;54380;47.770;11.150;2023-03-14T10:40:27;93155.56;;;14.72;54.40
67545;BME280;54380;47.770;11.150;2023-03-14T10:42:55;93157.47;;;15.01;54.37
67545;BME280;54380;47.770;11.150;2023-03-14T10:45:31;93157.78;;;15.29;53.07
67545;BME280;54380;47.770;11.150;2023-03-14T10:48:05;93160.16;;;15.52;52.94
67545;BME280;54380;47.770;11.150;2023-03-14T10:50:32;93166.78;;;15.75;52.17
67545;BME280;54380;47.770;11.150;2023-03-14T10:53:02;93158.53;;;15.89;52.39
67545;BME280;54380;47.770;11.150;2023-03-14T10:55:40;93166.00;;;15.96;51.51
67545;BME280;54380;47.770;11.150;2023-03-14T10:58:18;93158.34;;;15.94;51.90
67545;BME280;54380;47.770;11.150;2023-03-14T11:00:47;93162.53;;;15.95;52.06
67545;BME280;54380;47.770;11.150;2023-03-14T11:03:16;93159.88;;;15.95;51.50
67545;BME280;54380;47.770;11.150;2023-03-14T11:05:46;93160.06;;;15.90;51.11
67545;BME280;54380;47.770;11.150;2023-03-14T11:08:23;93162.03;;;15.81;50.91
67545;BME280;54380;47.770;11.150;2023-03-14T11:10:54;93157.38;;;15.78;51.18
67545;BME280;54380;47.770;11.150;2023-03-14T11:13:24;93155.59;;;15.82;51.30
67545;BME280;54380;47.770;11.150;2023-03-14T11:16:02;93154.31;;;15.88;51.07
67545;BME280;54380;47.770;11.150;2023-03-14T11:18:53;93148.22;;;15.88;49.00
67545;BME280;54380;47.770;11.150;2023-03-14T11:21:29;93149.38;;;15.78;48.83
67545;BME280;54380;47.770;11.150;2023-03-14T11:24:10;93148.53;;;15.86;48.88
67545;BME280;54380;47.770;11.150;2023-03-14T11:26:42;93154.63;;;15.87;47.79
67545;BME280;54380;47.770;11.150;2023-03-14T11:29:21;93147.78;;;15.86;45.86
67545;BME280;54380;47.770;11.150;2023-03-14T11:31:50;93145.38;;;15.63;46.43
67545;BME280;54380;47.770;11.150;2023-03-14T11:34:25;93147.34;;;15.54;47.27
67545;BME280;54380;47.770;11.150;2023-03-14T11:36:59;93164.63;;;15.39;46.74
67545;BME280;54380;47.770;11.150;2023-03-14T11:39:37;93163.75;;;15.26;46.74
67545;BME280;54380;47.770;11.150;2023-03-14T11:42:11;93146.31;;;15.17;46.28
67545;BME280;54380;47.770;11.150;2023-03-14T11:44:40;93150.59;;;15.00;46.76
67545;BME280;54380;47.770;11.150;2023-03-14T11:47:15;93152.66;;;14.95;47.71
67545;BME280;54380;47.770;11.150;2023-03-14T11:49:48;93152.50;;;14.91;46.00
67545;BME280;54380;47.770;11.150;2023-03-14T11:52:20;93155.38;;;14.77;45.86
67545;BME280;54380;47.770;11.150;2023-03-14T11:54:53;93144.94;;;14.72;46.53
67545;BME280;54380;47.770;11.150;2023-03-14T11:57:22;93142.94;;;14.60;47.17
67545;BME280;54380;47.770;11.150;2023-03-14T11:59:53;93150.59;;;14.53;46.70
67545;BME280;54380;47.770;11.150;2023-03-14T12:02:26;93153.56;;;14.52;46.56
67545;BME280;54380;47.770;11.150;2023-03-14T12:05:38;93142.94;;;14.60;47.31
67545;BME280;54380;47.770;11.150;2023-03-14T12:08:25;93148.38;;;14.73;47.20
67545;BME280;54380;47.770;11.150;2023-03-14T12:11:01;93150.03;;;14.86;46.60
67545;BME280;54380;47.770;11.150;2023-03-14T12:13:32;93153.94;;;14.88;46.59
67545;BME280;54380;47.770;11.150;2023-03-14T12:16:04;93155.34;;;14.86;46.36
67545;BME280;54380;47.770;11.150;2023-03-14T12:18:34;93161.13;;;14.79;46.05
67545;BME280;54380;47.770;11.150;2023-03-14T12:21:07;93168.38;;;14.70;46.52
67545;BME280;54380;47.770;11.150;2023-03-14T12:23:37;93174.97;;;14.55;46.60
67545;BME280;54380;47.770;11.150;2023-03-14T12:26:14;93184.94;;;14.49;47.30
67545;BME280;54380;47.770;11.150;2023-03-14T12:28:43;93193.19;;;14.48;47.18
67545;BME280;54380;47.770;11.150;2023-03-14T12:31:38;93183.69;;;14.47;47.44
67545;BME280;54380;47.770;11.150;2023-03-14T12:34:26;93194.81;;;14.40;47.00
67545;BME280;54380;47.770;11.150;2023-03-14T12:36:59;93186.38;;;14.30;46.81
67545;BME280;54380;47.770;11.150;2023-03-14T12:39:39;93203.72;;;14.10;46.71
67545;BME280;54380;47.770;11.150;2023-03-14T12:42:12;93195.59;;;13.89;48.13
67545;BME280;54380;47.770;11.150;2023-03-14T12:44:45;93191.38;;;13.70;48.74
67545;BME280;54380;47.770;11.150;2023-03-14T12:50:31;93196.19;;;13.59;49.66
67545;BME280;54380;47.770;11.150;2023-03-14T12:55:59;93208.63;;;13.50;50.21
67545;BME280;54380;47.770;11.150;2023-03-14T12:58:35;93217.69;;;13.41;49.82
67545;BME280;54380;47.770;11.150;2023-03-14T13:01:05;93219.53;;;13.40;50.16
67545;BME280;54380;47.770;11.150;2023-03-14T13:03:42;93220.31;;;13.41;49.81
67545;BME280;54380;47.770;11.150;2023-03-14T13:06:10;93246.97;;;13.35;50.06
67545;BME280;54380;47.770;11.150;2023-03-14T13:08:41;93235.25;;;13.28;50.18
67545;BME280;54380;47.770;11.150;2023-03-14T13:11:12;93249.50;;;13.18;50.19
67545;BME280;54380;47.770;11.150;2023-03-14T13:13:47;93245.25;;;13.08;50.81
67545;BME280;54380;47.770;11.150;2023-03-14T13:16:18;93255.03;;;12.99;51.01
67545;BME280;54380;47.770;11.150;2023-03-14T13:18:46;93265.72;;;12.85;51.36
67545;BME280;54380;47.770;11.150;2023-03-14T13:21:16;93286.06;;;12.76;52.00
67545;BME280;54380;47.770;11.150;2023-03-14T13:23:56;93294.13;;;12.71;52.45
67545;BME280;54380;47.770;11.150;2023-03-14T13:26:25;93295.34;;;12.65;52.97
67545;BME280;54380;47.770;11.150;2023-03-14T13:28:59;93292.53;;;12.61;53.46